createdAt,value
2023-02-15T00:00:12.049Z,97975.72
2023-02-15T00:01:13.741Z,97969.84
2023-02-15T00:02:15.300Z,97969.81
2023-02-15T00:03:17.566Z,97976.34
2023-02-15T00:04:22.182Z,97967.09
2023-02-15T00:05:23.741Z,97968.66
2023-02-15T00:06:25.579Z,97970.25
2023-02-15T00:07:27.176Z,97967.16
2023-02-15T00:08:28.755Z,97967.78
2023-02-15T00:09:30.304Z,97966.50
2023-02-15T00:10:31.850Z,97962.38
2023-02-15T00:11:51.079Z,97970.66
2023-02-15T00:12:52.687Z,97968.41
2023-02-15T00:13:54.203Z,97968.22
2023-02-15T00:14:55.748Z,97979.13
2023-02-15T00:16:02.804Z,97970.59
2023-02-15T00:17:04.973Z,97980.22
2023-02-15T00:18:06.551Z,97982.31
2023-02-15T00:19:09.158Z,97985.25
2023-02-15T00:20:11.948Z,97981.00
2023-02-15T00:21:13.511Z,97989.81
2023-02-15T00:22:15.058Z,97989.56
2023-02-15T00:23:16.594Z,97984.16
2023-02-15T00:24:19.481Z,97985.84
2023-02-15T00:25:21.123Z,97981.06
2023-02-15T00:26:22.837Z,97981.28
2023-02-15T00:27:24.653Z,97983.94
2023-02-15T00:28:26.227Z,97987.16
2023-02-15T00:29:27.918Z,97984.34
2023-02-15T00:30:29.566Z,97984.34
2023-02-15T00:31:32.656Z,97981.19
2023-02-15T00:32:34.296Z,97976.41
2023-02-15T00:33:36.949Z,97979.84
2023-02-15T00:34:38.583Z,97982.50
2023-02-15T00:35:40.248Z,97986.97
2023-02-15T00:36:42.455Z,97980.22
2023-02-15T00:37:55.933Z,97986.63
2023-02-15T00:38:57.533Z,97978.63
2023-02-15T00:39:59.126Z,97983.47
2023-02-15T00:41:02.466Z,97982.66
2023-02-15T00:42:04.319Z,97983.63
2023-02-15T00:43:05.844Z,97982.38
2023-02-15T00:44:08.544Z,97982.75
2023-02-15T00:45:10.476Z,97988.88
2023-02-15T00:46:12.071Z,97990.00
2023-02-15T00:47:13.634Z,97989.06
2023-02-15T00:48:15.183Z,97989.22
2023-02-15T00:49:16.805Z,97998.50
2023-02-15T00:50:18.390Z,97991.13
2023-02-15T00:51:21.320Z,97990.22
2023-02-15T00:52:22.848Z,97984.41
2023-02-15T00:53:25.503Z,97990.16
2023-02-15T00:54:27.082Z,97986.25
2023-02-15T00:55:28.828Z,97990.00
2023-02-15T00:56:30.382Z,97987.84
2023-02-15T00:57:32.150Z,97988.56
2023-02-15T00:58:33.975Z,97981.69
2023-02-15T00:59:35.638Z,97993.53
2023-02-15T01:00:37.966Z,97982.16
2023-02-15T01:01:39.533Z,97979.59
2023-02-15T01:02:41.103Z,97985.50
2023-02-15T01:03:43.020Z,97985.00
2023-02-15T01:04:44.739Z,97985.66
2023-02-15T01:05:48.689Z,97987.19
2023-02-15T01:06:50.245Z,97987.72
2023-02-15T01:07:54.335Z,97985.94
2023-02-15T01:08:56.015Z,97991.34
2023-02-15T01:09:57.600Z,97981.13
2023-02-15T01:11:07.952Z,97983.69
2023-02-15T01:12:09.898Z,97986.81
2023-02-15T01:13:11.443Z,97979.97
2023-02-15T01:14:14.203Z,97991.19
2023-02-15T01:15:15.790Z,97985.38
2023-02-15T01:16:17.880Z,97990.16
2023-02-15T01:17:19.517Z,97984.91
2023-02-15T01:18:22.134Z,97987.06
2023-02-15T01:19:23.718Z,97992.78
2023-02-15T01:20:28.626Z,97987.66
2023-02-15T01:21:30.273Z,97988.66
2023-02-15T01:22:31.817Z,97978.88
2023-02-15T01:23:33.923Z,97985.78
2023-02-15T01:24:35.482Z,97984.22
2023-02-15T01:25:37.477Z,97982.22
2023-02-15T01:26:39.047Z,97987.22
2023-02-15T01:27:40.590Z,97986.06
2023-02-15T01:28:42.213Z,97986.28
2023-02-15T01:29:43.963Z,97991.00
2023-02-15T01:30:45.674Z,97986.75
2023-02-15T01:31:47.412Z,97987.84
2023-02-15T01:32:49.085Z,97988.66
2023-02-15T01:33:53.879Z,97983.94
2023-02-15T01:34:55.443Z,97980.47
2023-02-15T01:36:00.946Z,97985.19
2023-02-15T01:37:03.006Z,97988.34
2023-02-15T01:38:04.556Z,97986.75
2023-02-15T01:39:06.165Z,97982.44
2023-02-15T01:40:13.893Z,97989.81
2023-02-15T01:41:21.461Z,97984.03
2023-02-15T01:42:24.903Z,97986.19
2023-02-15T01:43:41.634Z,97986.19
2023-02-15T01:44:43.120Z,97988.06
2023-02-15T01:45:48.804Z,97985.06
2023-02-15T01:46:54.085Z,97982.44
2023-02-15T01:48:03.032Z,97980.34
2023-02-15T01:49:13.028Z,97983.47
2023-02-15T01:50:29.480Z,97982.38
2023-02-15T01:51:34.174Z,97981.84
2023-02-15T01:52:39.834Z,97982.88
2023-02-15T01:54:53.087Z,97983.84
2023-02-15T01:56:10.638Z,97988.09
2023-02-15T01:57:19.189Z,97990.16
2023-02-15T01:58:23.303Z,97990.78
2023-02-15T01:59:26.380Z,97988.69
2023-02-15T02:00:28.040Z,97991.41
2023-02-15T02:01:29.795Z,97993.13
2023-02-15T02:02:31.477Z,97989.50
2023-02-15T02:04:05.821Z,97997.03
2023-02-15T02:05:08.200Z,97991.00
2023-02-15T02:06:10.434Z,97991.19
2023-02-15T02:07:15.302Z,97984.34
2023-02-15T02:08:16.913Z,97987.13
2023-02-15T02:09:18.474Z,97994.53
2023-02-15T02:10:23.575Z,97993.97
2023-02-15T02:11:25.657Z,97989.06
2023-02-15T02:12:27.509Z,97993.16
2023-02-15T02:13:29.520Z,97996.28
2023-02-15T02:14:31.710Z,98002.34
2023-02-15T02:15:56.485Z,97992.13
2023-02-15T02:17:11.133Z,97998.66
2023-02-15T02:18:43.769Z,98003.56
2023-02-15T02:20:22.443Z,97999.38
2023-02-15T02:21:53.146Z,97997.56
2023-02-15T02:22:54.608Z,98005.72
2023-02-15T02:24:26.933Z,97995.81
2023-02-15T02:26:05.852Z,97994.69
2023-02-15T02:27:33.961Z,97989.47
2023-02-15T02:28:50.431Z,97998.00
2023-02-15T02:29:55.864Z,97993.84
2023-02-15T02:31:24.796Z,97991.47
2023-02-15T02:32:54.291Z,97995.44
2023-02-15T02:34:23.012Z,98003.31
2023-02-15T02:35:41.209Z,97992.59
2023-02-15T02:36:53.883Z,97996.94
2023-02-15T02:38:24.700Z,97998.28
2023-02-15T02:39:56.573Z,98004.19
2023-02-15T02:41:13.123Z,97992.13
2023-02-15T02:42:32.704Z,98001.88
2023-02-15T02:43:49.428Z,97998.44
2023-02-15T02:44:59.789Z,97992.59
2023-02-15T02:46:11.466Z,97993.41
2023-02-15T02:47:30.833Z,97991.78
2023-02-15T02:48:34.307Z,97991.63
2023-02-15T02:49:41.791Z,98001.69
2023-02-15T02:50:43.330Z,98000.13
2023-02-15T02:51:44.910Z,97995.31
2023-02-15T02:52:51.902Z,97995.94
2023-02-15T02:53:58.153Z,97996.81
2023-02-15T02:55:01.185Z,97997.53
2023-02-15T02:56:35.704Z,97995.31
2023-02-15T02:57:42.046Z,98000.59
2023-02-15T02:58:52.037Z,98000.03
2023-02-15T02:59:58.051Z,98004.47
2023-02-15T03:01:18.236Z,98001.56
2023-02-15T03:02:26.259Z,98009.97
2023-02-15T03:03:52.014Z,98009.97
2023-02-15T03:05:04.747Z,98013.56
2023-02-15T03:06:18.857Z,98000.59
2023-02-15T03:07:23.634Z,98006.91
2023-02-15T03:08:29.676Z,98006.97
2023-02-15T03:09:42.652Z,98002.50
2023-02-15T03:10:44.476Z,98013.31
2023-02-15T03:11:47.109Z,98017.47
2023-02-15T03:12:49.598Z,98012.25
2023-02-15T03:13:51.317Z,98017.16
2023-02-15T03:14:57.665Z,98016.25
2023-02-15T03:16:30.526Z,98018.47
2023-02-15T03:17:39.192Z,98022.28
2023-02-15T03:18:53.688Z,98021.47
2023-02-15T03:19:58.742Z,98014.41
2023-02-15T03:21:02.557Z,98019.22
2023-02-15T03:22:20.363Z,98022.22
2023-02-15T03:23:28.335Z,98019.34
2023-02-15T03:25:05.455Z,98020.38
2023-02-15T03:26:09.105Z,98024.13
2023-02-15T03:27:20.527Z,98023.66
2023-02-15T03:28:28.530Z,98018.38
2023-02-15T03:29:32.506Z,98016.56
2023-02-15T03:30:36.096Z,98018.22
2023-02-15T03:31:43.153Z,98011.09
2023-02-15T03:32:48.444Z,98014.28
2023-02-15T03:34:01.736Z,98019.69
2023-02-15T03:35:03.632Z,98012.28
2023-02-15T03:36:20.023Z,98014.47
2023-02-15T03:37:42.749Z,98021.28
2023-02-15T03:39:12.893Z,98010.72
2023-02-15T03:40:51.388Z,98011.25
2023-02-15T03:42:18.614Z,98022.63
2023-02-15T03:43:39.657Z,98012.91
2023-02-15T03:45:02.183Z,98017.16
2023-02-15T03:46:18.980Z,98021.41
2023-02-15T03:47:24.138Z,98020.34
2023-02-15T03:48:30.765Z,98021.09
2023-02-15T03:49:46.706Z,98026.59
2023-02-15T03:51:07.367Z,98019.41
2023-02-15T03:52:11.972Z,98025.41
2023-02-15T03:53:17.990Z,98023.31
2023-02-15T03:54:43.233Z,98020.69
2023-02-15T03:55:48.754Z,98024.97
2023-02-15T03:57:10.369Z,98026.59
2023-02-15T03:58:30.121Z,98024.94
2023-02-15T03:59:49.966Z,98025.50
2023-02-15T04:01:39.259Z,98028.28
2023-02-15T04:03:05.784Z,98027.28
2023-02-15T04:04:15.337Z,98032.56
2023-02-15T04:05:16.989Z,98032.09
2023-02-15T04:06:18.532Z,98033.47
2023-02-15T04:07:20.076Z,98037.22
2023-02-15T04:08:41.776Z,98033.28
2023-02-15T04:10:01.847Z,98027.38
2023-02-15T04:11:03.364Z,98036.19
2023-02-15T04:12:05.448Z,98032.78
2023-02-15T04:13:06.946Z,98035.47
2023-02-15T04:14:27.118Z,98032.03
2023-02-15T04:15:47.153Z,98036.78
2023-02-15T04:16:48.838Z,98040.13
2023-02-15T04:17:50.414Z,98041.19
2023-02-15T04:19:10.575Z,98035.88
2023-02-15T04:20:31.068Z,98038.06
2023-02-15T04:21:50.947Z,98036.59
2023-02-15T04:23:11.399Z,98040.56
2023-02-15T04:24:31.647Z,98037.63
2023-02-15T04:25:33.206Z,98037.69
2023-02-15T04:26:34.762Z,98046.66
2023-02-15T04:27:38.432Z,98045.88
2023-02-15T04:28:39.989Z,98041.00
2023-02-15T04:29:41.721Z,98046.56
2023-02-15T04:30:43.302Z,98052.41
2023-02-15T04:31:44.948Z,98054.06
2023-02-15T04:32:46.974Z,98049.00
2023-02-15T04:33:48.801Z,98058.03
2023-02-15T04:34:50.328Z,98060.75
2023-02-15T04:35:51.929Z,98062.09
2023-02-15T04:36:53.655Z,98057.34
2023-02-15T04:37:56.885Z,98055.09
2023-02-15T04:38:58.460Z,98057.44
2023-02-15T04:40:00.195Z,98064.31
2023-02-15T04:41:01.764Z,98060.53
2023-02-15T04:42:03.341Z,98061.22
2023-02-15T04:43:04.853Z,98069.38
2023-02-15T04:44:06.443Z,98070.00
2023-02-15T04:45:08.908Z,98071.66
2023-02-15T04:46:10.636Z,98071.22
2023-02-15T04:47:12.255Z,98073.91
2023-02-15T04:48:13.801Z,98077.44
2023-02-15T04:49:15.647Z,98070.06
2023-02-15T04:50:17.502Z,98074.03
2023-02-15T04:51:19.136Z,98081.22
2023-02-15T04:52:21.704Z,98080.41
2023-02-15T04:53:23.245Z,98076.25
2023-02-15T04:54:25.160Z,98080.00
2023-02-15T04:55:27.905Z,98082.03
2023-02-15T04:56:31.063Z,98089.44
2023-02-15T04:57:32.712Z,98087.31
2023-02-15T04:58:34.569Z,98087.59
2023-02-15T04:59:36.154Z,98083.13
2023-02-15T05:00:37.722Z,98091.63
2023-02-15T05:01:39.464Z,98083.72
2023-02-15T05:02:41.019Z,98087.22
2023-02-15T05:03:42.573Z,98089.13
2023-02-15T05:04:44.118Z,98087.56
2023-02-15T05:05:45.649Z,98090.81
2023-02-15T05:06:47.269Z,98092.66
2023-02-15T05:07:48.870Z,98089.78
2023-02-15T05:08:50.451Z,98098.81
2023-02-15T05:09:51.991Z,98094.63
2023-02-15T05:10:53.599Z,98092.53
2023-02-15T05:11:55.186Z,98096.22
2023-02-15T05:12:56.794Z,98100.47
2023-02-15T05:13:58.423Z,98101.00
2023-02-15T05:14:59.993Z,98103.41
2023-02-15T05:16:01.769Z,98106.09
2023-02-15T05:17:04.359Z,98104.28
2023-02-15T05:18:07.374Z,98109.00
2023-02-15T05:19:09.053Z,98100.59
2023-02-15T05:20:11.093Z,98104.41
2023-02-15T05:21:14.664Z,98107.09
2023-02-15T05:22:16.404Z,98099.41
2023-02-15T05:23:18.154Z,98102.66
2023-02-15T05:24:42.858Z,98106.09
2023-02-15T05:26:09.876Z,98101.41
2023-02-15T05:27:31.562Z,98115.69
2023-02-15T05:28:33.147Z,98110.16
2023-02-15T05:29:34.804Z,98113.34
2023-02-15T05:30:37.008Z,98108.59
2023-02-15T05:31:39.159Z,98113.34
2023-02-15T05:32:40.918Z,98108.84
2023-02-15T05:33:42.759Z,98111.28
2023-02-15T05:34:44.313Z,98117.13
2023-02-15T05:35:45.845Z,98116.06
2023-02-15T05:36:47.413Z,98113.97
2023-02-15T05:37:48.948Z,98121.16
2023-02-15T05:38:50.695Z,98115.56
2023-02-15T05:39:52.240Z,98121.38
2023-02-15T05:40:54.087Z,98130.59
2023-02-15T05:41:55.637Z,98127.72
2023-02-15T05:42:57.828Z,98122.69
2023-02-15T05:43:59.381Z,98115.44
2023-02-15T05:45:00.977Z,98122.84
2023-02-15T05:46:03.451Z,98129.75
2023-02-15T05:47:08.109Z,98131.41
2023-02-15T05:48:09.684Z,98131.59
2023-02-15T05:49:11.249Z,98128.66
2023-02-15T05:50:12.919Z,98136.59
2023-02-15T05:51:15.972Z,98130.50
2023-02-15T05:52:17.660Z,98130.19
2023-02-15T05:53:19.213Z,98136.28
2023-02-15T05:54:20.742Z,98134.53
2023-02-15T05:55:22.340Z,98128.56
2023-02-15T05:56:23.903Z,98132.19
2023-02-15T05:57:25.431Z,98143.88
2023-02-15T05:58:31.945Z,98134.50
2023-02-15T05:59:33.494Z,98139.28
2023-02-15T06:00:37.343Z,98138.28
2023-02-15T06:01:39.653Z,98140.75
2023-02-15T06:02:41.708Z,98132.66
2023-02-15T06:03:43.550Z,98144.28
2023-02-15T06:04:45.146Z,98131.78
2023-02-15T06:05:46.706Z,98140.13
2023-02-15T06:06:48.266Z,98133.91
2023-02-15T06:07:49.855Z,98136.09
2023-02-15T06:08:51.416Z,98140.13
2023-02-15T06:09:53.143Z,98140.13
2023-02-15T06:10:54.778Z,98133.72
2023-02-15T06:11:56.378Z,98147.34
2023-02-15T06:12:57.926Z,98145.75
2023-02-15T06:13:59.473Z,98143.09
2023-02-15T06:15:01.130Z,98149.66
2023-02-15T06:16:03.070Z,98147.69
2023-02-15T06:17:04.797Z,98148.41
2023-02-15T06:18:06.352Z,98149.97
2023-02-15T06:19:07.981Z,98145.69
2023-02-15T06:20:10.332Z,98144.56
2023-02-15T06:21:11.922Z,98147.59
2023-02-15T06:22:15.081Z,98145.81
2023-02-15T06:23:17.334Z,98147.25
2023-02-15T06:24:18.880Z,98156.44
2023-02-15T06:25:21.388Z,98154.53
2023-02-15T06:26:22.969Z,98153.91
2023-02-15T06:27:24.532Z,98152.22
2023-02-15T06:28:26.622Z,98150.88
2023-02-15T06:29:28.284Z,98149.28
2023-02-15T06:30:29.845Z,98154.25
2023-02-15T06:31:31.600Z,98153.69
2023-02-15T06:32:33.326Z,98154.78
2023-02-15T06:33:35.031Z,98155.50
2023-02-15T06:34:36.589Z,98155.13
2023-02-15T06:35:38.190Z,98152.56
2023-02-15T06:36:39.699Z,98143.78
2023-02-15T06:37:41.282Z,98147.63
2023-02-15T06:38:42.853Z,98148.59
2023-02-15T06:39:45.223Z,98145.44
2023-02-15T06:40:47.488Z,98148.59
2023-02-15T06:41:49.259Z,98146.59
2023-02-15T06:42:51.106Z,98137.19
2023-02-15T06:43:52.683Z,98148.34
2023-02-15T06:44:54.261Z,98144.56
2023-02-15T06:45:55.874Z,98147.13
2023-02-15T06:46:57.486Z,98146.03
2023-02-15T06:47:59.027Z,98149.25
2023-02-15T06:49:00.563Z,98146.03
2023-02-15T06:50:02.304Z,98154.94
2023-02-15T06:51:03.874Z,98146.47
2023-02-15T06:52:05.769Z,98152.28
2023-02-15T06:53:07.347Z,98147.56
2023-02-15T06:54:08.921Z,98147.63
2023-02-15T06:55:10.546Z,98145.56
2023-02-15T06:56:12.484Z,98146.59
2023-02-15T06:57:14.036Z,98147.63
2023-02-15T06:58:15.611Z,98140.75
2023-02-15T06:59:17.179Z,98149.72
2023-02-15T07:00:19.491Z,98142.84
2023-02-15T07:01:21.208Z,98148.59
2023-02-15T07:02:22.784Z,98145.97
2023-02-15T07:03:24.302Z,98151.81
2023-02-15T07:04:25.983Z,98149.25
2023-02-15T07:05:32.052Z,98142.34
2023-02-15T07:06:34.585Z,98146.91
2023-02-15T07:07:36.429Z,98149.13
2023-02-15T07:08:39.568Z,98154.09
2023-02-15T07:09:41.227Z,98147.75
2023-02-15T07:10:45.372Z,98152.25
2023-02-15T07:12:05.641Z,98154.09
2023-02-15T07:13:07.155Z,98152.56
2023-02-15T07:14:08.663Z,98155.59
2023-02-15T07:15:12.085Z,98163.84
2023-02-15T07:16:13.884Z,98155.22
2023-02-15T07:17:35.140Z,98164.81
2023-02-15T07:18:37.735Z,98157.19
2023-02-15T07:19:39.259Z,98169.13
2023-02-15T07:20:42.637Z,98164.13
2023-02-15T07:21:46.474Z,98161.00
2023-02-15T07:22:48.708Z,98155.66
2023-02-15T07:23:50.244Z,98152.97
2023-02-15T07:24:55.439Z,98159.22
2023-02-15T07:26:01.292Z,98152.91
2023-02-15T07:27:03.271Z,98154.41
2023-02-15T07:28:05.571Z,98153.88
2023-02-15T07:29:07.198Z,98162.13
2023-02-15T07:30:14.574Z,98153.94
2023-02-15T07:31:16.470Z,98157.69
2023-02-15T07:32:18.152Z,98155.84
2023-02-15T07:33:28.032Z,98155.59
2023-02-15T07:34:29.625Z,98158.03
2023-02-15T07:35:31.240Z,98151.75
2023-02-15T07:36:33.336Z,98154.22
2023-02-15T07:37:34.942Z,98152.16
2023-02-15T07:38:38.105Z,98156.47
2023-02-15T07:39:39.613Z,98159.13
2023-02-15T07:40:41.297Z,98155.66
2023-02-15T07:41:42.847Z,98161.81
2023-02-15T07:42:44.379Z,98163.44
2023-02-15T07:43:46.357Z,98163.47
2023-02-15T07:44:48.033Z,98159.28
2023-02-15T07:45:49.573Z,98161.16
2023-02-15T07:46:51.210Z,98160.50
2023-02-15T07:47:52.869Z,98156.81
2023-02-15T07:48:54.734Z,98158.88
2023-02-15T07:49:56.344Z,98151.38
2023-02-15T07:51:01.867Z,98151.88
2023-02-15T07:52:03.484Z,98154.59
2023-02-15T07:53:05.411Z,98153.88
2023-02-15T07:54:06.952Z,98157.91
2023-02-15T07:55:09.717Z,98154.06
2023-02-15T07:56:13.109Z,98162.25
2023-02-15T07:57:14.674Z,98155.59
2023-02-15T07:58:16.512Z,98150.28
2023-02-15T07:59:18.066Z,98155.06
2023-02-15T08:00:24.437Z,98161.50
2023-02-15T08:01:28.752Z,98155.69
2023-02-15T08:02:31.276Z,98161.97
2023-02-15T08:03:32.889Z,98160.06
2023-02-15T08:04:34.507Z,98158.78
2023-02-15T08:05:36.473Z,98157.19
2023-02-15T08:06:38.895Z,98157.19
2023-02-15T08:07:40.408Z,98155.63
2023-02-15T08:08:42.497Z,98154.06
2023-02-15T08:09:44.037Z,98152.50
2023-02-15T08:11:04.189Z,98157.28
2023-02-15T08:12:05.943Z,98154.22
2023-02-15T08:13:07.502Z,98157.75
2023-02-15T08:14:14.840Z,98158.50
2023-02-15T08:15:16.457Z,98151.06
2023-02-15T08:16:18.044Z,98151.03
2023-02-15T08:17:19.641Z,98147.50
2023-02-15T08:18:21.150Z,98152.78
2023-02-15T08:19:24.141Z,98162.06
2023-02-15T08:20:25.740Z,98153.06
2023-02-15T08:21:29.143Z,98157.91
2023-02-15T08:22:30.733Z,98159.47
2023-02-15T08:23:32.296Z,98159.97
2023-02-15T08:24:38.027Z,98152.28
2023-02-15T08:25:39.576Z,98158.66
2023-02-15T08:26:42.574Z,98157.91
2023-02-15T08:27:44.336Z,98157.34
2023-02-15T08:28:47.383Z,98157.28
2023-02-15T08:29:49.086Z,98153.59
2023-02-15T08:30:50.643Z,98159.97
2023-02-15T08:32:03.173Z,98157.91
2023-02-15T08:33:05.187Z,98160.22
2023-02-15T08:34:06.993Z,98159.19
2023-02-15T08:35:08.649Z,98160.03
2023-02-15T08:36:13.278Z,98163.53
2023-02-15T08:37:14.939Z,98159.56
2023-02-15T08:38:16.489Z,98163.56
2023-02-15T08:39:18.388Z,98158.56
2023-02-15T08:40:20.176Z,98155.66
2023-02-15T08:41:24.923Z,98155.94
2023-02-15T08:42:26.442Z,98161.03
2023-02-15T08:43:27.994Z,98167.44
2023-02-15T08:44:30.144Z,98164.28
2023-02-15T08:45:31.768Z,98159.75
2023-02-15T08:46:36.284Z,98159.53
2023-02-15T08:47:37.833Z,98169.13
2023-02-15T08:48:39.863Z,98165.94
2023-02-15T08:49:41.404Z,98168.91
2023-02-15T08:50:43.023Z,98163.09
2023-02-15T08:51:44.941Z,98165.22
2023-02-15T08:52:46.586Z,98162.56
2023-02-15T08:53:50.142Z,98172.69
2023-02-15T08:54:51.698Z,98167.16
2023-02-15T08:56:00.102Z,98161.13
2023-02-15T08:57:01.747Z,98159.59
2023-02-15T08:58:03.299Z,98164.88
2023-02-15T08:59:06.012Z,98160.66
2023-02-15T09:00:08.221Z,98168.13
2023-02-15T09:01:23.748Z,98169.47
2023-02-15T09:02:25.355Z,98165.28
2023-02-15T09:03:26.971Z,98165.06
2023-02-15T09:04:28.628Z,98166.13
2023-02-15T09:05:30.248Z,98167.16
2023-02-15T09:06:32.352Z,98170.31
2023-02-15T09:07:33.909Z,98169.22
2023-02-15T09:08:35.576Z,98174.47
2023-02-15T09:09:37.125Z,98168.09
2023-02-15T09:10:38.637Z,98170.75
2023-02-15T09:11:43.498Z,98168.91
2023-02-15T09:12:45.114Z,98175.34
2023-02-15T09:13:46.623Z,98165.53
2023-02-15T09:14:48.141Z,98163.13
2023-02-15T09:15:49.737Z,98171.59
2023-02-15T09:16:53.894Z,98163.34
2023-02-15T09:17:55.516Z,98165.47
2023-02-15T09:19:02.309Z,98167.06
2023-02-15T09:20:04.263Z,98164.94
2023-02-15T09:21:17.072Z,98165.47
2023-02-15T09:22:18.870Z,98168.66
2023-02-15T09:23:26.847Z,98171.34
2023-02-15T09:24:34.845Z,98169.78
2023-02-15T09:25:36.440Z,98175.09
2023-02-15T09:26:43.978Z,98170.06
2023-02-15T09:27:45.597Z,98167.41
2023-02-15T09:28:49.468Z,98169.56
2023-02-15T09:29:51.099Z,98175.47
2023-02-15T09:30:54.083Z,98167.78
2023-02-15T09:31:55.716Z,98166.22
2023-02-15T09:32:57.311Z,98166.22
2023-02-15T09:34:01.966Z,98171.25
2023-02-15T09:35:03.533Z,98174.16
2023-02-15T09:36:06.539Z,98170.19
2023-02-15T09:37:08.117Z,98169.16
2023-02-15T09:38:10.766Z,98168.38
2023-02-15T09:39:13.909Z,98165.44
2023-02-15T09:40:18.100Z,98168.91
2023-02-15T09:41:38.380Z,98174.78
2023-02-15T09:42:58.218Z,98172.13
2023-02-15T09:44:12.420Z,98163.34
2023-02-15T09:45:32.279Z,98164.38
2023-02-15T09:46:58.174Z,98169.44
2023-02-15T09:48:21.166Z,98164.69
2023-02-15T09:49:44.158Z,98162.34
2023-02-15T09:50:48.629Z,98167.66
2023-02-15T09:52:16.397Z,98166.06
2023-02-15T09:53:28.643Z,98165.03
2023-02-15T09:55:00.535Z,98167.16
2023-02-15T09:56:12.368Z,98169.56
2023-02-15T09:57:49.416Z,98162.94
2023-02-15T09:59:03.254Z,98159.19
2023-02-15T10:00:20.278Z,98153.88
2023-02-15T10:01:50.206Z,98151.78
2023-02-15T10:03:16.672Z,98157.91
2023-02-15T10:04:27.016Z,98151.22
2023-02-15T10:05:45.600Z,98149.91
2023-02-15T10:06:57.782Z,98153.63
2023-02-15T10:08:05.386Z,98149.38
2023-02-15T10:09:39.340Z,98145.16
2023-02-15T10:11:22.571Z,98135.56
2023-02-15T10:12:40.279Z,98134.22
2023-02-15T10:14:02.304Z,98142.44
2023-02-15T10:15:25.401Z,98133.41
2023-02-15T10:16:34.095Z,98130.22
2023-02-15T10:18:13.983Z,98129.41
2023-02-15T10:19:44.616Z,98130.22
2023-02-15T10:20:48.914Z,98119.84
2023-02-15T10:21:57.899Z,98130.50
2023-02-15T10:23:02.449Z,98129.16
2023-02-15T10:24:40.552Z,98131.31
2023-02-15T10:25:56.667Z,98120.13
2023-02-15T10:27:14.601Z,98129.19
2023-02-15T10:28:25.002Z,98119.88
2023-02-15T10:29:29.229Z,98123.59
2023-02-15T10:30:47.976Z,98128.91
2023-02-15T10:32:11.137Z,98120.13
2023-02-15T10:33:22.907Z,98123.31
2023-02-15T10:34:39.301Z,98125.44
2023-02-15T10:35:57.718Z,98122.28
2023-02-15T10:37:13.420Z,98111.34
2023-02-15T10:38:21.134Z,98109.47
2023-02-15T10:39:30.579Z,98106.56
2023-02-15T10:40:47.421Z,98104.16
2023-02-15T10:42:27.554Z,98103.09
2023-02-15T10:43:32.177Z,98096.69
2023-02-15T10:45:11.417Z,98093.44
2023-02-15T10:46:35.143Z,98091.59
2023-02-15T10:47:51.472Z,98094.56
2023-02-15T10:49:30.644Z,98083.34
2023-02-15T10:50:44.387Z,98088.41
2023-02-15T10:52:04.241Z,98086.78
2023-02-15T10:53:32.892Z,98085.69
2023-02-15T10:55:01.141Z,98082.13
2023-02-15T10:56:06.766Z,98079.75
2023-02-15T10:57:20.879Z,98082.44
2023-02-15T10:58:44.631Z,98074.72
2023-02-15T11:00:18.267Z,98074.38
2023-02-15T11:01:55.478Z,98077.00
2023-02-15T11:03:30.030Z,98071.13
2023-02-15T11:04:51.086Z,98069.75
2023-02-15T11:06:12.725Z,98072.84
2023-02-15T11:07:36.355Z,98064.75
2023-02-15T11:08:52.153Z,98069.03
2023-02-15T11:10:23.999Z,98064.56
2023-02-15T11:11:31.318Z,98065.88
2023-02-15T11:12:34.280Z,98062.19
2023-02-15T11:13:47.434Z,98057.41
2023-02-15T11:14:59.606Z,98055.13
2023-02-15T11:16:12.907Z,98056.59
2023-02-15T11:17:20.652Z,98058.19
2023-02-15T11:18:33.573Z,98049.34
2023-02-15T11:20:19.255Z,98054.47
2023-02-15T11:21:33.541Z,98048.94
2023-02-15T11:22:35.841Z,98043.88
2023-02-15T11:23:45.696Z,98042.75
2023-02-15T11:24:48.125Z,98039.56
2023-02-15T11:26:00.670Z,98041.16
2023-02-15T11:27:05.617Z,98035.97
2023-02-15T11:28:28.152Z,98029.28
2023-02-15T11:29:46.329Z,98022.81
2023-02-15T11:30:53.237Z,98032.47
2023-02-15T11:31:57.831Z,98028.53
2023-02-15T11:33:05.530Z,98029.84
2023-02-15T11:34:21.327Z,98030.28
2023-02-15T11:35:32.543Z,98020.06
2023-02-15T11:36:39.044Z,98025.34
2023-02-15T11:37:47.118Z,98020.75
2023-02-15T11:38:52.139Z,98013.22
2023-02-15T11:39:55.773Z,98020.84
2023-02-15T11:41:03.332Z,98015.13
2023-02-15T11:42:15.139Z,98014.22
2023-02-15T11:43:34.119Z,98013.66
2023-02-15T11:44:41.412Z,98010.81
2023-02-15T11:45:45.677Z,98010.75
2023-02-15T11:46:47.670Z,98011.31
2023-02-15T11:47:49.480Z,98006.88
2023-02-15T11:48:51.297Z,98008.75
2023-02-15T11:49:52.903Z,98009.47
2023-02-15T11:50:54.454Z,97999.22
2023-02-15T11:51:57.123Z,98002.94
2023-02-15T11:53:05.569Z,97997.59
2023-02-15T11:54:09.734Z,98003.75
2023-02-15T11:55:20.207Z,97989.63
2023-02-15T11:56:26.648Z,97986.13
2023-02-15T11:57:41.455Z,97999.09
2023-02-15T11:58:52.448Z,97994.63
2023-02-15T12:00:18.618Z,97991.97
2023-02-15T12:01:29.352Z,97987.84
2023-02-15T12:02:34.399Z,97993.69
2023-02-15T12:03:49.624Z,97984.50
2023-02-15T12:04:59.713Z,97985.03
2023-02-15T12:06:06.676Z,97983.78
2023-02-15T12:07:22.761Z,97976.84
2023-02-15T12:08:24.885Z,97979.22
2023-02-15T12:09:45.094Z,97973.81
2023-02-15T12:10:59.597Z,97964.84
2023-02-15T12:12:35.293Z,97962.31
2023-02-15T12:13:36.877Z,97964.41
2023-02-15T12:14:49.944Z,97966.56
2023-02-15T12:15:55.151Z,97967.66
2023-02-15T12:16:57.628Z,97956.38
2023-02-15T12:17:59.205Z,97957.97
2023-02-15T12:19:02.395Z,97960.34
2023-02-15T12:20:30.329Z,97959.41
2023-02-15T12:21:40.549Z,97954.03
2023-02-15T12:22:55.397Z,97957.22
2023-02-15T12:24:02.208Z,97964.34
2023-02-15T12:25:22.305Z,97943.25
2023-02-15T12:26:35.072Z,97943.91
2023-02-15T12:27:37.950Z,97949.69
2023-02-15T12:28:44.256Z,97946.94
2023-02-15T12:29:50.357Z,97942.47
2023-02-15T12:30:54.354Z,97949.34
2023-02-15T12:31:56.389Z,97941.81
2023-02-15T12:33:07.022Z,97940.72
2023-02-15T12:34:32.585Z,97939.25
2023-02-15T12:35:37.497Z,97944.69
2023-02-15T12:36:51.635Z,97944.72
2023-02-15T12:37:56.224Z,97933.91
2023-02-15T12:39:20.500Z,97935.69
2023-02-15T12:40:23.513Z,97928.28
2023-02-15T12:41:27.387Z,97929.28
2023-02-15T12:42:43.027Z,97923.16
2023-02-15T12:43:44.683Z,97930.47
2023-02-15T12:45:00.272Z,97928.28
2023-02-15T12:46:22.809Z,97928.72
2023-02-15T12:47:30.494Z,97921.19
2023-02-15T12:48:32.182Z,97920.69
2023-02-15T12:49:38.458Z,97920.38
2023-02-15T12:50:42.232Z,97921.19
2023-02-15T12:52:00.334Z,97927.94
2023-02-15T12:53:20.082Z,97927.50
2023-02-15T12:54:31.795Z,97919.94
2023-02-15T12:55:33.404Z,97920.34
2023-02-15T12:56:34.944Z,97927.31
2023-02-15T12:57:36.484Z,97923.03
2023-02-15T12:58:40.219Z,97919.66
2023-02-15T13:00:17.281Z,97919.66
2023-02-15T13:01:25.392Z,97919.13
2023-02-15T13:02:42.132Z,97922.13
2023-02-15T13:04:14.384Z,97924.13
2023-02-15T13:05:44.131Z,97918.16
2023-02-15T13:06:52.780Z,97913.25
2023-02-15T13:07:57.815Z,97912.16
2023-02-15T13:09:27.279Z,97913.06
2023-02-15T13:10:38.524Z,97909.72
2023-02-15T13:11:42.075Z,97911.88
2023-02-15T13:12:47.625Z,97904.16
2023-02-15T13:13:55.604Z,97902.16